createdAt,value
2023-02-21T00:00:50.000Z,97.2
2023-02-21T00:02:06.000Z,97.3
2023-02-21T00:03:22.000Z,97.3
2023-02-21T00:04:39.000Z,97.3
2023-02-21T00:05:55.000Z,97.3
2023-02-21T00:07:11.000Z,97.4
2023-02-21T00:08:27.000Z,97.4
2023-02-21T00:09:43.000Z,97.3
2023-02-21T00:10:58.000Z,97.3
2023-02-21T00:12:15.000Z,97.3
2023-02-21T00:13:31.000Z,97.3
2023-02-21T00:14:47.000Z,97.5
2023-02-21T00:16:03.000Z,97.5
2023-02-21T00:17:19.000Z,97.4
2023-02-21T00:18:36.000Z,97.3
2023-02-21T00:19:52.000Z,97.4
2023-02-21T00:21:08.000Z,97.5
2023-02-21T00:22:24.000Z,97.6
2023-02-21T00:23:40.000Z,97.5
2023-02-21T00:24:57.000Z,97.5
2023-02-21T00:26:13.000Z,97.7
2023-02-21T00:27:28.000Z,97.9
2023-02-21T00:28:44.000Z,97.9
2023-02-21T00:30:00.000Z,97.8
2023-02-21T00:31:17.000Z,97.9
2023-02-21T00:32:33.000Z,97.9
2023-02-21T00:33:49.413Z,97.8
2023-02-21T00:35:05.000Z,97.7
2023-02-21T00:36:21.000Z,97.7
2023-02-21T00:37:38.000Z,97.7
2023-02-21T00:38:54.000Z,97.7
2023-02-21T00:40:10.000Z,97.7
2023-02-21T00:41:26.000Z,97.7
2023-02-21T00:42:42.000Z,97.6
2023-02-21T00:43:58.000Z,97.7
2023-02-21T00:45:14.000Z,97.7
2023-02-21T00:46:30.000Z,97.7
2023-02-21T00:47:46.000Z,97.7
2023-02-21T00:49:02.000Z,97.7
2023-02-21T00:50:19.000Z,97.7
2023-02-21T00:51:35.000Z,97.8
2023-02-21T00:52:51.000Z,98
2023-02-21T00:54:07.000Z,98
2023-02-21T00:55:23.000Z,98
2023-02-21T00:56:39.000Z,97.9
2023-02-21T00:57:56.000Z,97.9
2023-02-21T00:59:12.000Z,97.9
2023-02-21T01:00:27.000Z,97.9
2023-02-21T01:01:43.000Z,97.9
2023-02-21T01:02:59.000Z,98
2023-02-21T01:04:16.000Z,98
2023-02-21T01:05:32.000Z,97.9
2023-02-21T01:06:48.000Z,97.9
2023-02-21T01:08:04.000Z,98
2023-02-21T01:09:20.000Z,98.2
2023-02-21T01:10:37.000Z,98
2023-02-21T01:11:53.000Z,98
2023-02-21T01:13:09.456Z,98
2023-02-21T01:14:25.000Z,98
2023-02-21T01:15:41.000Z,98
2023-02-21T01:16:57.000Z,98
2023-02-21T01:18:13.000Z,98.2
2023-02-21T01:19:29.000Z,98.4
2023-02-21T01:20:45.000Z,98.3
2023-02-21T01:22:01.000Z,98.5
2023-02-21T01:23:18.000Z,98.3
2023-02-21T01:24:34.000Z,98.3
2023-02-21T01:25:50.427Z,98.3
2023-02-21T01:27:06.000Z,98.3
2023-02-21T01:28:22.000Z,98.3
2023-02-21T01:29:39.000Z,98.3
2023-02-21T01:30:55.000Z,98.3
2023-02-21T01:32:11.000Z,98.3
2023-02-21T01:33:26.000Z,98.3
2023-02-21T01:34:42.000Z,98.3
2023-02-21T01:35:59.000Z,98.3
2023-02-21T01:37:15.000Z,98.3
2023-02-21T01:38:31.000Z,98.3
2023-02-21T01:39:47.000Z,98.3
2023-02-21T01:41:03.000Z,98
2023-02-21T01:42:20.000Z,98.3
2023-02-21T01:43:36.000Z,98.3
2023-02-21T01:44:52.000Z,98.3
2023-02-21T01:46:08.000Z,98.3
2023-02-21T01:47:24.000Z,98.3
2023-02-21T01:48:41.000Z,98.3
2023-02-21T01:49:56.000Z,98.3
2023-02-21T01:51:12.354Z,98.3
2023-02-21T01:52:28.000Z,98.3
2023-02-21T01:53:44.000Z,98.3
2023-02-21T01:55:00.000Z,98.3
2023-02-21T01:56:17.000Z,98.2
2023-02-21T01:57:33.000Z,98.2
2023-02-21T01:58:49.000Z,98.3
2023-02-21T02:00:05.000Z,98.3
2023-02-21T02:01:21.000Z,98.2
2023-02-21T02:02:38.000Z,98
2023-02-21T02:03:54.000Z,98.2
2023-02-21T02:05:10.000Z,98.3
2023-02-21T02:06:25.000Z,98.3
2023-02-21T02:07:41.000Z,98.3
2023-02-21T02:08:58.000Z,98.5
2023-02-21T02:10:14.000Z,98.6
2023-02-21T02:11:30.000Z,98.7
2023-02-21T02:12:46.000Z,98.8
2023-02-21T02:14:02.000Z,98.8
2023-02-21T02:15:19.000Z,98.7
2023-02-21T02:16:35.000Z,98.7
2023-02-21T02:17:51.000Z,98.8
2023-02-21T02:19:07.000Z,98.8
2023-02-21T02:20:23.000Z,98.9
2023-02-21T02:21:40.000Z,98.8
2023-02-21T02:22:55.000Z,98.8
2023-02-21T02:24:11.000Z,98.9
2023-02-21T02:25:27.000Z,98.8
2023-02-21T02:26:43.000Z,98.8
2023-02-21T02:28:00.000Z,98.8
2023-02-21T02:29:16.242Z,98.7
2023-02-21T02:30:31.000Z,98.8
2023-02-21T02:31:47.000Z,98.8
2023-02-21T02:33:03.000Z,98.9
2023-02-21T02:34:20.000Z,98.9
2023-02-21T02:35:36.000Z,98.8
2023-02-21T02:36:52.000Z,98.8
2023-02-21T02:38:08.000Z,98.9
2023-02-21T02:39:24.000Z,99
2023-02-21T02:40:41.000Z,99
2023-02-21T02:41:57.000Z,99
2023-02-21T02:43:13.000Z,99
2023-02-21T02:44:29.000Z,99
2023-02-21T02:45:45.000Z,98.9
2023-02-21T02:47:01.000Z,98.9
2023-02-21T02:48:17.000Z,98.9
2023-02-21T02:49:33.000Z,99
2023-02-21T02:50:49.000Z,98.9
2023-02-21T02:52:05.000Z,99
2023-02-21T02:53:22.000Z,99
2023-02-21T02:54:38.187Z,99
2023-02-21T02:55:54.000Z,98.9
2023-02-21T02:57:10.000Z,98.9
2023-02-21T02:58:26.780Z,98.9
2023-02-21T02:59:43.000Z,98.9
2023-02-21T03:00:59.000Z,98.9
2023-02-21T03:02:15.000Z,98.8
2023-02-21T03:03:30.000Z,98.8
2023-02-21T03:04:46.000Z,98.8
2023-02-21T03:06:03.000Z,98.8
2023-02-21T03:07:19.150Z,98.8
2023-02-21T03:08:35.000Z,98.8
2023-02-21T03:09:51.000Z,98.8
2023-02-21T03:11:07.000Z,98.9
2023-02-21T03:12:23.000Z,98.9
2023-02-21T03:13:40.000Z,99
2023-02-21T03:14:56.000Z,99
2023-02-21T03:16:12.000Z,99.1
2023-02-21T03:17:28.000Z,99
2023-02-21T03:18:44.000Z,99
2023-02-21T03:20:00.000Z,99.1
2023-02-21T03:21:16.312Z,99.1
2023-02-21T03:22:32.000Z,99.2
2023-02-21T03:23:48.000Z,99.2
2023-02-21T03:25:04.000Z,99.3
2023-02-21T03:26:21.000Z,99.4
2023-02-21T03:27:37.000Z,99.4
2023-02-21T03:28:53.000Z,99.5
2023-02-21T03:30:09.000Z,99.4
2023-02-21T03:31:25.000Z,99.5
2023-02-21T03:32:42.080Z,99.5
2023-02-21T03:33:58.000Z,99.4
2023-02-21T03:35:14.000Z,99.4
2023-02-21T03:36:29.000Z,99.4
2023-02-21T03:37:45.000Z,99.2
2023-02-21T03:39:02.000Z,99.2
2023-02-21T03:40:18.000Z,99.3
2023-02-21T03:41:34.000Z,99.3
2023-02-21T03:42:50.000Z,99.3
2023-02-21T03:44:06.000Z,99.3
2023-02-21T03:45:23.000Z,99.3
2023-02-21T03:46:39.000Z,99.1
2023-02-21T03:47:55.000Z,99.2
2023-02-21T03:49:11.000Z,99.2
2023-02-21T03:50:27.000Z,99
2023-02-21T03:51:44.000Z,99
2023-02-21T03:52:59.000Z,99.1
2023-02-21T03:54:15.000Z,99.1
2023-02-21T03:55:31.000Z,99.2
2023-02-21T03:56:47.000Z,99.2
2023-02-21T03:58:04.000Z,99
2023-02-21T03:59:20.000Z,99.1
2023-02-21T04:00:36.000Z,99.2
2023-02-21T04:01:52.000Z,99.2
2023-02-21T04:03:08.000Z,99.2
2023-02-21T04:04:25.000Z,99.4
2023-02-21T04:05:41.000Z,99.4
2023-02-21T04:06:57.367Z,99.4
2023-02-21T04:08:13.000Z,99.5
2023-02-21T04:09:28.000Z,99.4
2023-02-21T04:10:44.975Z,99.4
2023-02-21T04:12:01.000Z,99.3
2023-02-21T04:13:17.000Z,99.2
2023-02-21T04:14:33.000Z,99.2
2023-02-21T04:15:49.000Z,99.2
2023-02-21T04:17:06.000Z,99.2
2023-02-21T04:18:22.000Z,99.2
2023-02-21T04:19:38.000Z,99.2
2023-02-21T04:20:54.000Z,99.1
2023-02-21T04:22:10.000Z,99.2
2023-02-21T04:23:26.935Z,99.2
2023-02-21T04:24:43.000Z,99.3
2023-02-21T04:25:58.000Z,99.3
2023-02-21T04:27:14.000Z,99.3
2023-02-21T04:28:30.000Z,99.3
2023-02-21T04:29:46.000Z,99.3
2023-02-21T04:31:03.000Z,99.3
2023-02-21T04:32:19.000Z,99.3
2023-02-21T04:33:35.000Z,99.3
2023-02-21T04:34:51.000Z,99.2
2023-02-21T04:36:07.000Z,99.2
2023-02-21T04:37:24.000Z,99.3
2023-02-21T04:38:40.000Z,99.3
2023-02-21T04:39:56.000Z,99.4
2023-02-21T04:41:12.000Z,99.3
2023-02-21T04:42:27.000Z,99.3
2023-02-21T04:43:44.000Z,99.3
2023-02-21T04:45:00.000Z,99.2
2023-02-21T04:46:16.000Z,99.2
2023-02-21T04:47:32.000Z,99.3
2023-02-21T04:48:48.000Z,99.4
2023-02-21T04:50:05.000Z,99.5
2023-02-21T04:51:21.000Z,99.6
2023-02-21T04:52:37.000Z,99.7
2023-02-21T04:53:53.000Z,99.8
2023-02-21T04:55:09.000Z,99.8
2023-02-21T04:56:26.000Z,99.9
2023-02-21T04:57:42.000Z,100
2023-02-21T04:58:57.000Z,100
2023-02-21T05:00:13.000Z,100
2023-02-21T05:01:29.831Z,100
2023-02-21T05:02:46.000Z,100
2023-02-21T05:04:02.000Z,100
2023-02-21T05:05:18.000Z,100
2023-02-21T05:06:34.000Z,100
2023-02-21T05:07:50.000Z,100
2023-02-21T05:09:07.000Z,100
2023-02-21T05:10:23.000Z,100
2023-02-21T05:11:39.000Z,100
2023-02-21T05:12:55.000Z,100
2023-02-21T05:14:11.000Z,100
2023-02-21T05:15:27.000Z,100
2023-02-21T05:16:43.000Z,100
2023-02-21T05:17:59.000Z,100
2023-02-21T05:19:15.000Z,100
2023-02-21T05:20:31.000Z,100
2023-02-21T05:21:48.000Z,100
2023-02-21T05:23:04.000Z,100
2023-02-21T05:24:20.000Z,100
2023-02-21T05:25:36.000Z,100
2023-02-21T05:26:52.000Z,100
2023-02-21T05:28:09.000Z,100
2023-02-21T05:29:25.000Z,100
2023-02-21T05:30:41.334Z,100
2023-02-21T05:31:56.000Z,100
2023-02-21T05:33:12.000Z,100
2023-02-21T05:34:29.000Z,100
2023-02-21T05:35:45.000Z,100
2023-02-21T05:37:01.000Z,100
2023-02-21T05:38:17.000Z,100
2023-02-21T05:39:33.000Z,100
2023-02-21T05:40:49.000Z,100
2023-02-21T05:42:06.000Z,100
2023-02-21T05:43:22.000Z,100
2023-02-21T05:44:38.000Z,100
2023-02-21T05:45:54.000Z,100
2023-02-21T05:47:10.000Z,100
2023-02-21T05:48:26.000Z,100
2023-02-21T05:49:42.000Z,100
2023-02-21T05:50:58.000Z,100
2023-02-21T05:52:14.000Z,100
2023-02-21T05:53:30.000Z,100
2023-02-21T05:54:47.000Z,100
2023-02-21T05:56:03.000Z,100
2023-02-21T05:57:19.000Z,100
2023-02-21T05:58:35.000Z,100
2023-02-21T05:59:51.000Z,100
2023-02-21T06:01:08.000Z,100
2023-02-21T06:02:24.000Z,100
2023-02-21T06:03:40.000Z,100
2023-02-21T06:04:55.000Z,100
2023-02-21T06:06:11.000Z,100
2023-02-21T06:07:28.000Z,100
2023-02-21T06:08:44.000Z,100
2023-02-21T06:10:00.441Z,100
2023-02-21T06:11:16.000Z,100
2023-02-21T06:12:32.000Z,100
2023-02-21T06:13:49.000Z,100
2023-02-21T06:15:05.000Z,100
2023-02-21T06:16:21.000Z,100
2023-02-21T06:17:37.000Z,100
2023-02-21T06:18:53.000Z,100
2023-02-21T06:20:10.000Z,100
2023-02-21T06:21:25.213Z,100
2023-02-21T06:22:41.000Z,100
2023-02-21T06:23:57.000Z,100
2023-02-21T06:25:13.000Z,100
2023-02-21T06:26:30.000Z,100
2023-02-21T06:27:46.000Z,100
2023-02-21T06:29:02.000Z,100
2023-02-21T06:30:18.592Z,100
2023-02-21T06:31:34.000Z,100
2023-02-21T06:32:51.000Z,100
2023-02-21T06:34:07.000Z,100
2023-02-21T06:35:23.000Z,100
2023-02-21T06:36:39.000Z,100
2023-02-21T06:37:54.000Z,100
2023-02-21T06:39:11.000Z,100
2023-02-21T06:40:27.000Z,100
2023-02-21T06:41:43.362Z,100
2023-02-21T06:42:59.553Z,100
2023-02-21T06:44:15.000Z,100
2023-02-21T06:45:31.000Z,100
2023-02-21T06:46:47.000Z,100
2023-02-21T06:48:03.000Z,100
2023-02-21T06:49:19.000Z,100
2023-02-21T06:50:35.000Z,100
2023-02-21T06:51:52.000Z,100
2023-02-21T06:53:08.000Z,100
2023-02-21T06:54:24.000Z,100
2023-02-21T06:55:40.536Z,100
2023-02-21T06:56:56.000Z,100
2023-02-21T06:58:13.000Z,100
2023-02-21T06:59:29.000Z,100
2023-02-21T07:00:45.000Z,100
2023-02-21T07:02:00.000Z,100
2023-02-21T07:03:16.000Z,100
2023-02-21T07:04:32.000Z,100
2023-02-21T07:05:49.000Z,100
2023-02-21T07:07:05.000Z,100
2023-02-21T07:08:21.504Z,100
2023-02-21T07:09:37.000Z,100
2023-02-21T07:10:53.000Z,100
2023-02-21T07:12:10.000Z,100
2023-02-21T07:13:26.000Z,100
2023-02-21T07:14:42.000Z,100
2023-02-21T07:15:58.000Z,100
2023-02-21T07:17:14.000Z,100
2023-02-21T07:18:30.000Z,100
2023-02-21T07:19:46.000Z,100
2023-02-21T07:21:02.471Z,100
2023-02-21T07:22:18.000Z,100
2023-02-21T07:23:34.000Z,100
2023-02-21T07:24:51.000Z,100
2023-02-21T07:26:07.000Z,100
2023-02-21T07:27:23.000Z,100
2023-02-21T07:28:39.000Z,100
2023-02-21T07:29:55.000Z,100
2023-02-21T07:31:12.000Z,100
2023-02-21T07:32:28.000Z,100
2023-02-21T07:33:44.442Z,100
2023-02-21T07:34:59.000Z,100
2023-02-21T07:36:15.000Z,100
2023-02-21T07:37:32.046Z,100
2023-02-21T07:38:48.000Z,100
2023-02-21T07:40:04.000Z,100
2023-02-21T07:41:20.000Z,100
2023-02-21T07:42:36.000Z,100
2023-02-21T07:43:53.013Z,100
2023-02-21T07:45:09.000Z,100
2023-02-21T07:46:25.000Z,100
2023-02-21T07:47:41.000Z,100
2023-02-21T07:48:57.000Z,100
2023-02-21T07:50:14.000Z,100
2023-02-21T07:51:29.000Z,100
2023-02-21T07:52:45.000Z,100
2023-02-21T07:54:01.604Z,100
2023-02-21T07:55:17.000Z,100
2023-02-21T07:56:34.000Z,100
2023-02-21T07:57:50.000Z,100
2023-02-21T07:59:06.389Z,100
2023-02-21T08:00:22.000Z,100
2023-02-21T08:01:38.000Z,100
2023-02-21T08:02:55.000Z,100
2023-02-21T08:04:11.000Z,100
2023-02-21T08:05:27.000Z,100
2023-02-21T08:06:43.543Z,100
2023-02-21T08:07:58.846Z,100
2023-02-21T08:09:15.000Z,100
2023-02-21T08:10:31.000Z,100
2023-02-21T08:11:47.000Z,100
2023-02-21T08:13:03.000Z,100
2023-02-21T08:14:19.000Z,100
2023-02-21T08:15:36.000Z,100
2023-02-21T08:16:52.000Z,100
2023-02-21T08:18:08.000Z,100
2023-02-21T08:19:24.000Z,100
2023-02-21T08:20:40.000Z,100
2023-02-21T08:21:56.000Z,100
2023-02-21T08:23:13.000Z,100
2023-02-21T08:24:28.000Z,100
2023-02-21T08:25:44.000Z,100
2023-02-21T08:27:00.000Z,100
2023-02-21T08:28:16.000Z,100
2023-02-21T08:29:33.000Z,100
2023-02-21T08:30:49.000Z,100
2023-02-21T08:32:05.000Z,100
2023-02-21T08:33:21.000Z,100
2023-02-21T08:34:37.000Z,100
2023-02-21T08:35:54.000Z,100
2023-02-21T08:37:10.289Z,100
2023-02-21T08:38:26.000Z,100
2023-02-21T08:39:42.000Z,100
2023-02-21T08:40:57.000Z,100
2023-02-21T08:42:14.000Z,100
2023-02-21T08:43:30.000Z,100
2023-02-21T08:44:46.000Z,100
2023-02-21T08:46:02.000Z,100
2023-02-21T08:47:18.000Z,100
2023-02-21T08:48:35.000Z,100
2023-02-21T08:49:51.259Z,100
2023-02-21T08:51:07.000Z,100
2023-02-21T08:52:23.000Z,100
2023-02-21T08:53:39.000Z,100
2023-02-21T08:54:56.000Z,100
2023-02-21T08:56:12.000Z,100
2023-02-21T08:57:27.000Z,100
2023-02-21T08:58:43.000Z,100
2023-02-21T08:59:59.000Z,100
2023-02-21T09:01:16.000Z,100
2023-02-21T09:02:32.231Z,100
2023-02-21T09:03:48.000Z,100
2023-02-21T09:05:04.000Z,100
2023-02-21T09:06:20.000Z,100
2023-02-21T09:07:37.000Z,100
2023-02-21T09:08:53.000Z,100
2023-02-21T09:10:09.000Z,100
2023-02-21T09:11:25.000Z,100
2023-02-21T09:12:41.000Z,100
2023-02-21T09:13:57.000Z,100
2023-02-21T09:15:13.201Z,100
2023-02-21T09:16:29.000Z,100
2023-02-21T09:17:45.000Z,100
2023-02-21T09:19:01.000Z,100
2023-02-21T09:20:18.000Z,100
2023-02-21T09:21:34.000Z,100
2023-02-21T09:22:50.000Z,100
2023-02-21T09:24:06.000Z,100
2023-02-21T09:25:22.000Z,100
2023-02-21T09:26:39.000Z,100
2023-02-21T09:27:55.000Z,100
2023-02-21T09:29:11.000Z,100
2023-02-21T09:30:26.000Z,100
2023-02-21T09:31:42.000Z,100
2023-02-21T09:32:59.000Z,100
2023-02-21T09:34:15.000Z,100
2023-02-21T09:35:31.000Z,100
2023-02-21T09:36:47.000Z,100
2023-02-21T09:38:03.000Z,100
2023-02-21T09:39:20.000Z,100
2023-02-21T09:40:36.000Z,100
2023-02-21T09:41:52.323Z,100
2023-02-21T09:43:08.000Z,100
2023-02-21T09:44:24.000Z,100
2023-02-21T09:45:40.000Z,99.9
2023-02-21T09:46:56.000Z,99.9
2023-02-21T09:48:12.000Z,99.9
2023-02-21T09:49:28.512Z,100
2023-02-21T09:50:44.000Z,100
2023-02-21T09:52:00.000Z,100
2023-02-21T09:53:17.000Z,100
2023-02-21T09:54:33.279Z,100
2023-02-21T09:55:49.000Z,100
2023-02-21T09:57:05.000Z,100
2023-02-21T09:58:21.000Z,100
2023-02-21T09:59:38.000Z,99.9
2023-02-21T10:00:54.000Z,99.7
2023-02-21T10:02:10.000Z,99.6
2023-02-21T10:03:25.000Z,99.6
2023-02-21T10:04:41.000Z,99.7
2023-02-21T10:05:58.052Z,100
2023-02-21T10:07:14.000Z,100
2023-02-21T10:08:30.460Z,100
2023-02-21T10:09:46.000Z,100
2023-02-21T10:11:02.000Z,100
2023-02-21T10:12:19.000Z,100
2023-02-21T10:13:35.000Z,100
2023-02-21T10:14:51.000Z,99.8
2023-02-21T10:16:07.000Z,99.8
2023-02-21T10:17:23.000Z,100
2023-02-21T10:18:40.000Z,100
2023-02-21T10:19:55.000Z,100
2023-02-21T10:21:11.422Z,100
2023-02-21T10:22:27.000Z,100
2023-02-21T10:23:43.000Z,100
2023-02-21T10:25:00.000Z,100
2023-02-21T10:26:16.000Z,100
2023-02-21T10:27:32.000Z,100
2023-02-21T10:28:48.000Z,100
2023-02-21T10:30:04.000Z,100
2023-02-21T10:31:21.000Z,100
2023-02-21T10:32:37.177Z,100
2023-02-21T10:33:53.000Z,100
2023-02-21T10:35:09.000Z,100
2023-02-21T10:36:24.000Z,100
2023-02-21T10:37:41.000Z,100
2023-02-21T10:38:57.000Z,100
2023-02-21T10:40:13.000Z,100
2023-02-21T10:41:29.000Z,100
2023-02-21T10:42:45.000Z,100
2023-02-21T10:44:01.943Z,99.8
2023-02-21T10:45:18.000Z,99.8
2023-02-21T10:46:34.327Z,99.8
2023-02-21T10:47:50.000Z,99.8
2023-02-21T10:49:06.000Z,99.8
2023-02-21T10:50:22.000Z,99.4
2023-02-21T10:51:39.000Z,99.3
2023-02-21T10:52:54.000Z,99.2
2023-02-21T10:54:10.000Z,99
2023-02-21T10:55:26.000Z,99
2023-02-21T10:56:42.000Z,99
2023-02-21T10:57:59.000Z,98.9
2023-02-21T10:59:15.000Z,98.8
2023-02-21T11:00:30.000Z,98.7
2023-02-21T11:01:46.000Z,98.7
2023-02-21T11:03:02.000Z,98.7
2023-02-21T11:04:19.000Z,98.6
2023-02-21T11:05:35.000Z,98.5
2023-02-21T11:06:51.000Z,98.6
2023-02-21T11:08:07.000Z,98.5
2023-02-21T11:09:23.000Z,98.7
2023-02-21T11:10:40.033Z,98.9
2023-02-21T11:11:56.000Z,98.9
2023-02-21T11:13:12.000Z,98.7
2023-02-21T11:14:28.000Z,98.7
2023-02-21T11:15:44.000Z,98.6
2023-02-21T11:17:00.000Z,98.2
2023-02-21T11:18:16.000Z,98
2023-02-21T11:19:32.000Z,98
2023-02-21T11:20:48.000Z,97.8
2023-02-21T11:22:04.799Z,98
2023-02-21T11:23:21.000Z,98.2
2023-02-21T11:24:37.000Z,98.2
2023-02-21T11:25:53.000Z,98.1
2023-02-21T11:27:09.000Z,98
2023-02-21T11:28:25.000Z,98.1
2023-02-21T11:29:42.000Z,98.1
2023-02-21T11:30:58.000Z,97.9
2023-02-21T11:32:14.000Z,98.1
2023-02-21T11:33:29.000Z,98.1
2023-02-21T11:34:45.000Z,98.2
2023-02-21T11:36:02.000Z,98.4
2023-02-21T11:37:18.000Z,98.5
2023-02-21T11:38:34.000Z,98.6
2023-02-21T11:39:50.000Z,98.5
2023-02-21T11:41:06.000Z,98.4
2023-02-21T11:42:22.000Z,98.5
2023-02-21T11:43:39.000Z,98.3
2023-02-21T11:44:55.000Z,98.3
2023-02-21T11:46:11.000Z,98.3
2023-02-21T11:47:27.000Z,98.1
2023-02-21T11:48:43.000Z,97.8
2023-02-21T11:49:59.087Z,97.7
2023-02-21T11:51:15.000Z,97.5
2023-02-21T11:52:31.000Z,97.5
2023-02-21T11:53:47.000Z,97.8
2023-02-21T11:55:03.000Z,97.9
2023-02-21T11:56:20.000Z,97.9
2023-02-21T11:57:36.000Z,98.1
2023-02-21T11:58:52.000Z,98.2
2023-02-21T12:00:08.627Z,98.3
2023-02-21T12:01:24.000Z,98.3
2023-02-21T12:02:41.000Z,98.1
2023-02-21T12:03:57.000Z,98.3
2023-02-21T12:05:13.000Z,98.6
2023-02-21T12:06:28.000Z,98.9
2023-02-21T12:07:44.000Z,99
2023-02-21T12:09:01.000Z,99
2023-02-21T12:10:17.000Z,99.1
2023-02-21T12:11:33.389Z,99.1
2023-02-21T12:12:49.000Z,99.1
2023-02-21T12:14:05.000Z,99.1
2023-02-21T12:15:22.000Z,99
2023-02-21T12:16:38.000Z,98.7
2023-02-21T12:17:54.000Z,98.6
2023-02-21T12:19:10.000Z,98.8
2023-02-21T12:20:26.000Z,98.6
2023-02-21T12:21:43.000Z,98.5
2023-02-21T12:22:58.000Z,98.4
2023-02-21T12:24:14.000Z,98.3
2023-02-21T12:25:30.000Z,98.4
2023-02-21T12:26:46.000Z,98.3
2023-02-21T12:28:03.000Z,98.7
2023-02-21T12:29:19.000Z,98.7
2023-02-21T12:30:35.000Z,98.7
2023-02-21T12:31:51.486Z,98.7
2023-02-21T12:33:07.000Z,98.7
2023-02-21T12:34:23.000Z,98.6
2023-02-21T12:35:40.000Z,98.5
2023-02-21T12:36:56.000Z,98.2
2023-02-21T12:38:12.000Z,97.8
2023-02-21T12:39:27.000Z,97.5
2023-02-21T12:40:43.000Z,97.2
2023-02-21T12:42:00.000Z,97
2023-02-21T12:43:16.000Z,96.8
2023-02-21T12:44:32.000Z,97
2023-02-21T12:45:48.000Z,97
2023-02-21T12:47:04.000Z,97.1
2023-02-21T12:48:21.000Z,97.1
2023-02-21T12:49:37.000Z,97.2
2023-02-21T12:50:53.000Z,97.1
2023-02-21T12:52:09.000Z,96.9
2023-02-21T12:53:25.000Z,96.8
2023-02-21T12:54:42.000Z,96.8
2023-02-21T12:55:57.000Z,96.8
2023-02-21T12:57:13.000Z,96.8
2023-02-21T12:58:29.000Z,96.5
2023-02-21T12:59:45.000Z,96.4
2023-02-21T13:01:02.000Z,96.3
2023-02-21T13:02:18.000Z,96
2023-02-21T13:03:34.000Z,96
2023-02-21T13:04:50.000Z,95.9
2023-02-21T13:06:06.000Z,95.9
2023-02-21T13:07:23.000Z,96
2023-02-21T13:08:39.000Z,95.8
2023-02-21T13:09:55.000Z,95.7
2023-02-21T13:11:11.000Z,95.7
2023-02-21T13:12:26.000Z,95.8
2023-02-21T13:13:43.000Z,95.7
2023-02-21T13:14:59.000Z,96
2023-02-21T13:16:15.000Z,96.2
2023-02-21T13:17:31.000Z,96.3
2023-02-21T13:18:47.000Z,96.5
2023-02-21T13:20:03.000Z,96.6
2023-02-21T13:21:20.000Z,96.7
2023-02-21T13:22:36.000Z,96.6
2023-02-21T13:23:52.000Z,96.7
2023-02-21T13:25:08.000Z,96.9
2023-02-21T13:26:24.000Z,96.9
2023-02-21T13:27:41.000Z,96.9
2023-02-21T13:28:56.000Z,96.8
2023-02-21T13:30:12.000Z,96.4
2023-02-21T13:31:28.000Z,96.3
2023-02-21T13:32:44.000Z,96.3
2023-02-21T13:34:01.000Z,96.4
2023-02-21T13:35:17.000Z,96.3
2023-02-21T13:36:33.000Z,96.5
2023-02-21T13:37:49.605Z,96.7
2023-02-21T13:39:05.000Z,96.8
2023-02-21T13:40:22.000Z,96.7
2023-02-21T13:41:38.187Z,96.8
2023-02-21T13:42:54.000Z,96.7
2023-02-21T13:44:10.000Z,96.6
2023-02-21T13:45:25.000Z,96.7
2023-02-21T13:46:42.000Z,96.7
2023-02-21T13:47:58.000Z,96.8
2023-02-21T13:49:14.000Z,96.8
2023-02-21T13:50:30.000Z,96.7
2023-02-21T13:51:46.000Z,96.7
2023-02-21T13:53:03.000Z,96.7
2023-02-21T13:54:19.000Z,96.6
2023-02-21T13:55:35.000Z,96.6
2023-02-21T13:56:51.000Z,96.6
2023-02-21T13:58:07.000Z,96.6
2023-02-21T13:59:24.000Z,96.4
2023-02-21T14:00:40.000Z,96
2023-02-21T14:01:55.000Z,96.1
2023-02-21T14:03:11.000Z,96.1
2023-02-21T14:04:27.000Z,95.7
2023-02-21T14:05:43.000Z,95.7
2023-02-21T14:07:00.172Z,95.9
2023-02-21T14:08:16.000Z,96.1
2023-02-21T14:09:32.000Z,96.3
2023-02-21T14:10:48.000Z,96.4
2023-02-21T14:12:04.000Z,96.2
2023-02-21T14:13:21.000Z,95.9
2023-02-21T14:14:37.000Z,96.1
2023-02-21T14:15:53.000Z,96.2
2023-02-21T14:17:09.000Z,96.3
2023-02-21T14:18:24.000Z,96.5
2023-02-21T14:19:41.127Z,96.8
2023-02-21T14:20:57.000Z,97
2023-02-21T14:22:13.000Z,97.4
2023-02-21T14:23:29.000Z,97.6
2023-02-21T14:24:45.000Z,97.7
2023-02-21T14:26:02.000Z,97.4
2023-02-21T14:27:18.000Z,97.3
2023-02-21T14:28:34.000Z,97.4
2023-02-21T14:29:50.000Z,97.3
2023-02-21T14:31:06.000Z,97.1
2023-02-21T14:32:23.000Z,96.9
2023-02-21T14:33:39.000Z,97.1
2023-02-21T14:34:54.000Z,97
2023-02-21T14:36:10.000Z,97.2
2023-02-21T14:37:26.000Z,97
2023-02-21T14:38:43.000Z,96.6
2023-02-21T14:39:59.000Z,96.6
2023-02-21T14:41:15.000Z,96.7
2023-02-21T14:42:31.000Z,96.7
2023-02-21T14:43:47.000Z,96.8
2023-02-21T14:45:03.995Z,96.9
2023-02-21T14:46:20.000Z,97
2023-02-21T14:47:36.000Z,96.9
2023-02-21T14:48:52.000Z,96.7
2023-02-21T14:50:08.000Z,96.6
2023-02-21T14:51:24.000Z,96.6
2023-02-21T14:52:40.000Z,96.5
2023-02-21T14:53:56.000Z,96.8
2023-02-21T14:55:12.000Z,96.8
2023-02-21T14:56:28.000Z,96.6
2023-02-21T14:57:44.000Z,96.7
2023-02-21T14:59:01.000Z,96.9
2023-02-21T15:00:17.000Z,97.2
2023-02-21T15:01:33.000Z,97.4
2023-02-21T15:02:49.000Z,97.5
2023-02-21T15:04:05.000Z,97.7
2023-02-21T15:05:22.000Z,97.7
2023-02-21T15:06:38.000Z,97.5
2023-02-21T15:07:53.000Z,97
2023-02-21T15:09:09.000Z,97.1
2023-02-21T15:10:25.911Z,97.1
2023-02-21T15:11:42.000Z,97.1
2023-02-21T15:12:58.000Z,96.9
2023-02-21T15:14:14.000Z,96.5
2023-02-21T15:15:29.000Z,96.4
2023-02-21T15:16:45.000Z,96.4
2023-02-21T15:18:02.000Z,96.4
2023-02-21T15:19:18.000Z,96.2
2023-02-21T15:20:34.000Z,96.3
2023-02-21T15:21:50.660Z,96.3
2023-02-21T15:23:06.851Z,96.2
2023-02-21T15:24:23.000Z,95.9
2023-02-21T15:25:39.000Z,96
2023-02-21T15:26:55.431Z,96.1
2023-02-21T15:28:11.000Z,95.9
2023-02-21T15:29:27.000Z,96
2023-02-21T15:30:44.000Z,96.1
2023-02-21T15:31:59.000Z,96.1
2023-02-21T15:33:15.418Z,96
2023-02-21T15:34:31.000Z,96.1
2023-02-21T15:35:47.000Z,96.2
2023-02-21T15:37:04.007Z,96.1
2023-02-21T15:38:20.000Z,96.3
2023-02-21T15:39:36.000Z,96.3
2023-02-21T15:40:52.000Z,96.5
2023-02-21T15:42:08.000Z,96.4
2023-02-21T15:43:24.000Z,96.4
2023-02-21T15:44:41.000Z,96.4
2023-02-21T15:45:57.000Z,96.4
2023-02-21T15:47:13.000Z,96.3
2023-02-21T15:48:28.755Z,96.1
2023-02-21T15:49:44.000Z,96.1
2023-02-21T15:51:01.000Z,96.3
2023-02-21T15:52:17.000Z,96.4
2023-02-21T15:53:33.000Z,96.4
2023-02-21T15:54:49.000Z,96.4
2023-02-21T15:56:05.000Z,96.3
2023-02-21T15:57:22.000Z,96.4
2023-02-21T15:58:38.000Z,96.3
2023-02-21T15:59:54.489Z,96.3
2023-02-21T16:01:10.692Z,96.2
2023-02-21T16:02:26.000Z,96.2
2023-02-21T16:03:43.000Z,96
2023-02-21T16:04:58.000Z,95.8
2023-02-21T16:06:14.000Z,95.8
2023-02-21T16:07:30.000Z,95.7
2023-02-21T16:08:46.000Z,95.7
2023-02-21T16:10:03.000Z,95.7
2023-02-21T16:11:19.000Z,95.6
2023-02-21T16:12:35.000Z,95.8
2023-02-21T16:13:51.000Z,95.8
2023-02-21T16:15:07.000Z,95.7
2023-02-21T16:16:24.000Z,95.7
2023-02-21T16:17:40.000Z,95.7
2023-02-21T16:18:56.000Z,95.8
2023-02-21T16:20:12.000Z,95.8
2023-02-21T16:21:27.000Z,95.7
2023-02-21T16:22:44.000Z,95.9
2023-02-21T16:24:00.195Z,96.1
2023-02-21T16:25:16.000Z,96.2
2023-02-21T16:26:32.582Z,96.4
2023-02-21T16:27:48.000Z,96.3
2023-02-21T16:29:05.000Z,96.3
2023-02-21T16:30:21.000Z,96.3
2023-02-21T16:31:37.000Z,96.4
2023-02-21T16:32:53.000Z,96.4
2023-02-21T16:34:09.000Z,96.3
2023-02-21T16:35:25.000Z,96.2
2023-02-21T16:36:42.000Z,96.3
2023-02-21T16:37:57.000Z,96.3
2023-02-21T16:39:13.000Z,96.3
2023-02-21T16:40:29.000Z,96.3
2023-02-21T16:41:45.000Z,96.4
2023-02-21T16:43:02.000Z,96.6
2023-02-21T16:44:18.302Z,96.8
2023-02-21T16:45:34.000Z,96.9
2023-02-21T16:46:50.704Z,96.9
2023-02-21T16:48:06.000Z,96.9
2023-02-21T16:49:23.000Z,96.8
2023-02-21T16:50:39.000Z,96.7
2023-02-21T16:51:55.470Z,96.5
2023-02-21T16:53:11.672Z,96.5
2023-02-21T16:54:26.000Z,96.5
2023-02-21T16:55:43.073Z,96.5
2023-02-21T16:56:59.000Z,96.5
2023-02-21T16:58:15.000Z,96.6
2023-02-21T16:59:31.647Z,96.6
2023-02-21T17:00:47.000Z,96.7
2023-02-21T17:02:04.000Z,96.7
2023-02-21T17:03:20.000Z,96.8
2023-02-21T17:04:36.000Z,97.1
2023-02-21T17:05:52.000Z,97.2
2023-02-21T17:07:08.000Z,97.3
2023-02-21T17:08:25.000Z,97.5
2023-02-21T17:09:41.000Z,97.5